Latest Weather Observations for Nowra

IDN60801

Issued at 5:32 pm EST Tuesday 26 May 2015 (issued every 30 minutes, with the page automatically refreshed every 10 minutes)

About weather observations | Map of weather stations | Latest weather observations for NSW | Other Formats
Station Details ID: 068072 Name: NOWRA RAN AIR STATION AWS Lat: -34.95 Lon: 150.54 Height: 109.0 m
Data from the previous 72 hours. | See also: Recent months at Nowra
Date/Time
EST
Temp
°C
App
Temp
°C
Dew
Point
Rel
Hum
%
Delta-T
°C
Wind Press
QNH
hPa
Press
MSL
hPa
Rain
since 9 am
mm
Dir
 
Spd
km/h
Gust
km/h
Spd
kts
Gust
kts
26/05:00pm 13.6 12.2 9.5 76 2.1 SE 7 11 4 6 1025.7 - 0.0
26/04:30pm 14.5 12.7 9.5 72 2.6 ESE 9 11 5 6 1025.8 - 0.0
26/04:00pm 15.3 13.1 9.2 67 3.1 E 11 13 6 7 1026.0 - 0.0
26/03:30pm 16.6 14.4 9.3 62 3.8 E 11 13 6 7 1025.9 - 0.0
26/03:00pm 16.7 14.3 8.7 59 4.1 ESE 11 17 6 9 1026.3 1026.3 0.0
26/02:30pm 17.2 14.9 8.9 58 4.3 SE 11 17 6 9 1026.4 - 0.0
26/02:00pm 17.5 15.1 8.6 56 4.6 E 11 13 6 7 1026.6 - 0.0
26/01:30pm 18.0 16.1 7.7 51 5.3 NNE 7 11 4 6 1026.8 - 0.0
26/01:00pm 17.4 15.2 7.7 53 4.9 NNW 9 15 5 8 1027.2 - 0.0
26/12:30pm 17.5 15.3 7.8 53 4.9 N 9 13 5 7 1027.8 - 0.0
26/12:00pm 17.0 15.1 8.9 59 4.2 N 9 13 5 7 1028.2 1028.2 0.0
26/11:30am 15.9 13.1 8.4 61 3.8 NNW 13 17 7 9 1028.7 - 0.0
26/10:30am 14.2 10.7 7.3 63 3.4 NW 15 17 8 9 1029.4 - 0.0
26/10:00am 13.1 9.1 6.7 65 3.1 NW 17 19 9 10 1029.6 - 0.0
26/09:30am 12.1 7.7 6.4 68 2.7 WNW 19 24 10 13 1029.9 - 0.0
26/09:00am 10.6 5.8 5.6 71 2.3 WNW 20 24 11 13 1029.8 1029.8 0.0
26/08:30am 9.6 5.2 5.0 73 2.1 WNW 17 24 9 13 1029.8 - 0.0
26/07:30am 7.9 3.5 4.5 79 1.5 WNW 17 20 9 11 1029.5 - 0.0
26/07:00am 7.0 2.5 4.1 82 1.3 W 17 22 9 12 1029.2 - 0.0
26/06:30am 7.1 2.2 4.2 82 1.3 WNW 19 22 10 12 1029.0 - 0.0
26/06:00am 6.9 2.8 4.2 83 1.2 WNW 15 17 8 9 1028.6 1028.6 0.0
26/05:30am 7.0 3.2 4.1 82 1.3 WNW 13 17 7 9 1028.4 - 0.0
26/05:00am 7.2 3.5 4.2 81 1.3 WNW 13 17 7 9 1028.5 - 0.0
26/04:30am 7.3 2.8 4.3 81 1.3 WNW 17 22 9 12 1028.7 - 0.0
26/04:00am 7.3 3.6 4.3 81 1.3 WNW 13 17 7 9 1028.8 - 0.0
26/03:30am 7.6 2.8 4.4 80 1.4 WNW 19 22 10 12 1029.0 - 0.0
26/03:00am 7.7 3.6 4.5 80 1.4 WNW 15 19 8 10 1029.0 1029.0 0.0
26/02:30am 7.5 5.0 4.5 81 1.3 NW 7 17 4 9 1029.2 - 0.0
26/02:00am 8.3 3.9 4.5 77 1.7 WNW 17 22 9 12 1029.1 - 0.0
26/01:30am 8.4 4.4 4.8 78 1.6 NW 15 20 8 11 1029.0 - 0.0
26/01:00am 9.1 5.1 4.9 75 1.9 WNW 15 19 8 10 1029.3 - 0.0
26/12:30am 9.2 5.2 5.0 75 1.9 WNW 15 19 8 10 1029.4 - 0.0
 
Date/Time
EST
Temp
°C
App
Temp
°C
Dew
Point
Rel
Hum
%
Delta-T
°C
Wind Press
QNH
hPa
Press
MSL
hPa
Rain
since 9 am
mm
Dir
 
Spd
km/h
Gust
km/h
Spd
kts
Gust
kts
25/11:30pm 9.4 4.8 5.4 76 1.8 WNW 19 22 10 12 1029.5 - 0.0
25/11:00pm 7.9 6.1 5.2 83 1.2 NNW 4 9 2 5 1029.6 - 0.0
25/10:30pm 9.3 6.7 6.0 80 1.5 NW 9 13 5 7 1029.6 - 0.0
25/10:00pm 9.2 7.0 6.1 81 1.4 NW 7 11 4 6 1029.6 - 0.0
25/09:30pm 8.8 6.4 6.9 88 0.9 NW 9 11 5 6 1029.6 - 0.0
25/09:00pm 8.2 6.1 6.7 90 0.7 WNW 7 11 4 6 1029.5 1029.5 0.0
25/08:30pm 8.2 6.2 7.0 92 0.6 W 7 11 4 6 1029.2 - 0.0
25/08:00pm 8.9 7.2 8.3 96 0.3 W 7 9 4 5 1029.3 - 0.0
25/07:30pm 8.7 6.9 7.8 94 0.4 WNW 7 9 4 5 1029.2 - 0.0
25/07:00pm 9.0 7.3 8.2 95 0.4 W 7 11 4 6 1028.9 - 0.0
25/06:30pm 9.6 7.6 8.7 94 0.4 WSW 9 15 5 8 1028.7 - 0.0
25/05:30pm 10.2 8.5 8.5 89 0.8 WSW 7 9 4 5 1028.2 - 0.0
25/05:00pm 11.7 9.5 8.0 78 1.8 SSW 9 9 5 5 1028.2 - 0.0
25/04:30pm 14.8 11.9 8.3 65 3.3 S 13 17 7 9 1028.0 - 0.0
25/04:00pm 17.9 15.9 6.4 47 5.7 WNW 6 9 3 5 1027.8 - 0.0
25/03:30pm 18.0 15.3 5.6 44 6.1 WNW 9 13 5 7 1027.9 - 0.0
25/03:00pm 17.6 15.8 7.1 50 5.2 NW 6 9 3 5 1028.0 1028.0 0.0
25/02:30pm 17.4 16.2 6.3 48 5.5 NNW 2 11 1 6 1027.7 - 0.0
25/02:00pm 16.5 13.2 6.6 52 4.9 NNW 13 17 7 9 1027.6 - 0.0
25/01:30pm 15.7 11.9 7.7 59 4.0 NW 17 24 9 13 1027.9 - 0.0
25/01:00pm 15.6 11.6 6.6 55 4.4 NNW 17 22 9 12 1028.1 - 0.0
25/12:30pm 15.9 11.3 5.8 51 4.9 NNW 19 26 10 14 1028.4 - 0.0
25/12:00pm 15.8 11.9 7.3 57 4.2 NW 17 22 9 12 1028.9 1028.9 0.0
25/11:30am 15.0 10.4 5.8 54 4.4 NNW 19 24 10 13 1029.5 - 0.0
25/11:00am 14.7 9.9 5.8 55 4.3 NW 20 28 11 15 1030.1 - 0.0
25/10:30am 13.3 8.4 5.2 58 3.8 NW 20 28 11 15 1030.3 - 0.0
25/10:00am 11.7 6.3 4.7 62 3.2 NW 22 32 12 17 1030.6 - 0.0
25/09:30am 11.4 5.2 4.4 62 3.2 NW 26 32 14 17 1031.1 - 0.0
25/09:00am 10.2 4.4 4.6 68 2.5 NW 24 30 13 16 1031.0 1031.0 0.0
25/08:30am 9.6 4.1 4.2 69 2.4 NW 22 28 12 15 1030.8 - 0.0
25/08:00am 8.9 4.1 4.9 76 1.8 NW 19 24 10 13 1030.9 - 0.0
25/07:30am 8.3 4.0 5.1 80 1.4 WNW 17 20 9 11 1030.9 - 0.0
25/07:00am 7.7 3.5 5.5 86 1.0 NW 17 20 9 11 1030.8 - 0.0
25/06:30am 7.3 3.1 5.6 89 0.8 WNW 17 20 9 11 1030.6 - 0.0
25/06:00am 7.7 3.5 5.8 88 0.9 NW 17 20 9 11 1030.7 1030.7 0.0
25/05:30am 7.1 3.7 6.0 93 0.5 NW 13 17 7 9 1030.5 - 0.0
25/05:00am 7.1 4.4 5.7 91 0.6 NNW 9 15 5 8 1030.3 - 0.0
25/04:30am 7.4 3.7 6.2 92 0.5 NW 15 17 8 9 1030.3 - 0.0
25/04:00am 7.1 3.4 6.2 94 0.4 NW 15 19 8 10 1030.4 - 0.0
25/03:30am 7.1 3.8 6.2 94 0.4 NW 13 15 7 8 1030.3 - 0.0
25/03:00am 7.1 3.8 6.4 95 0.3 NW 13 15 7 8 1030.7 1030.7 0.0
25/02:30am 7.0 4.8 6.1 94 0.4 NNW 7 11 4 6 1031.0 - 0.0
25/02:00am 7.4 4.1 6.5 94 0.4 NW 13 15 7 8 1031.3 - 0.0
25/01:30am 7.5 3.5 6.8 95 0.3 WNW 17 19 9 10 1031.2 - 0.0
25/01:00am 7.7 3.8 7.0 95 0.3 WNW 17 17 9 9 1031.2 - 0.0
25/12:30am 7.9 5.1 7.1 95 0.4 WNW 11 13 6 7 1031.4 - 0.0
25/12:00am 8.2 5.9 7.3 94 0.4 NW 9 13 5 7 1031.5 1031.5 0.0
 
Date/Time
EST
Temp
°C
App
Temp
°C
Dew
Point
Rel
Hum
%
Delta-T
°C
Wind Press
QNH
hPa
Press
MSL
hPa
Rain
since 9 am
mm
Dir
 
Spd
km/h
Gust
km/h
Spd
kts
Gust
kts
24/11:30pm 8.1 5.4 7.5 96 0.3 WNW 11 15 6 8 1031.7 - 0.0
24/11:00pm 8.7 5.7 7.9 95 0.4 WNW 13 15 7 8 1031.8 - 0.0
24/10:30pm 8.7 6.2 8.3 97 0.2 WNW 11 15 6 8 1031.8 - 0.0
24/10:00pm 8.7 6.2 8.4 98 0.1 WNW 11 13 6 7 1031.9 - 0.0
24/09:30pm 8.7 6.2 8.4 98 0.1 WNW 11 13 6 7 1031.9 - 0.0
24/09:00pm 8.5 6.4 8.4 99 0.0 NW 9 11 5 6 1031.8 1031.8 0.0
24/08:30pm 8.3 6.6 8.2 99 0.0 WNW 7 13 4 7 1031.8 - 0.0
24/08:00pm 7.5 6.9 7.4 99 0.0 CALM 0 0 0 0 1031.5 - 0.0
24/07:30pm 7.7 6.8 7.6 99 0.0 W 2 7 1 4 1031.4 - 0.0
24/07:00pm 7.3 4.8 6.7 96 0.3 W 9 9 5 5 1031.5 - 0.0
24/06:30pm 8.6 6.9 8.5 99 0.0 W 7 11 4 6 1031.5 - 0.0
24/06:00pm 7.9 5.5 7.0 94 0.4 SW 9 9 5 5 1031.2 1031.2 0.0
24/05:30pm 9.3 8.7 7.3 87 0.9 CALM 0 0 0 0 1031.0 - 0.0
24/05:00pm 13.4 13.2 9.1 75 2.2 CALM 0 0 0 0 1030.8 - 0.0
24/04:30pm 15.5 14.5 9.0 65 3.3 N 4 7 2 4 1030.5 - 0.0
24/04:00pm 16.6 14.8 7.8 56 4.5 N 7 9 4 5 1030.3 - 0.0
24/03:30pm 16.9 15.0 7.5 54 4.7 N 7 9 4 5 1030.1 - 0.0
24/03:00pm 16.8 14.6 8.0 56 4.4 N 9 11 5 6 1030.1 1030.1 0.0
24/02:30pm 16.7 14.1 7.6 55 4.6 N 11 15 6 8 1030.4 - 0.0
24/02:00pm 16.4 14.1 7.3 55 4.6 N 9 13 5 7 1030.5 - 0.0
24/01:30pm 16.5 14.1 6.9 53 4.8 N 9 13 5 7 1030.5 - 0.0
24/01:00pm 16.7 14.9 7.1 53 4.8 N 6 9 3 5 1030.7 - 0.0
24/12:30pm 15.8 12.8 6.0 52 4.8 N 11 15 6 8 1030.9 - 0.0
24/12:00pm 15.7 12.9 5.3 50 4.9 NW 9 13 5 7 1031.3 1031.3 0.0
24/11:30am 15.3 12.7 7.6 60 3.8 WNW 11 13 6 7 1031.7 - 0.0
24/11:00am 14.5 11.9 7.8 64 3.3 NW 11 15 6 8 1032.0 - 0.0
24/10:30am 13.2 10.2 7.6 69 2.8 NW 13 15 7 8 1032.3 - 0.0
24/10:00am 12.1 8.3 7.6 74 2.2 WNW 17 19 9 10 1032.6 - 0.0
24/09:30am 10.7 6.7 6.8 77 1.9 NW 17 22 9 12 1032.5 - 0.0
24/09:00am 9.2 5.6 6.8 85 1.1 WNW 15 20 8 11 1032.5 1032.5 0.2
24/08:30am 8.5 5.2 6.6 88 0.9 NW 13 15 7 8 1032.4 - 0.2
24/08:00am 7.5 3.3 5.8 89 0.8 WNW 17 20 9 11 1031.9 - 0.2
24/07:30am 6.8 2.0 5.7 93 0.5 WNW 20 24 11 13 1031.5 - 0.2
24/07:00am 6.2 3.5 5.6 96 0.3 NW 9 13 5 7 1031.4 - 0.2
24/06:30am 6.3 2.1 5.7 96 0.3 WNW 17 20 9 11 1030.9 - 0.2
24/06:00am 6.4 1.9 6.0 97 0.2 WNW 19 20 10 11 1030.8 1030.8 0.0
24/05:30am 6.3 2.5 6.0 98 0.1 WNW 15 19 8 10 1030.3 - 0.0
24/05:00am 6.5 2.0 5.9 96 0.3 WNW 19 22 10 12 1030.0 - 0.0
24/04:30am 6.7 2.2 6.0 95 0.3 WNW 19 24 10 13 1030.0 - 0.0
24/04:00am 6.6 2.8 6.0 96 0.3 W 15 20 8 11 1029.8 - 0.0
24/03:30am 6.4 3.0 6.0 97 0.2 WNW 13 17 7 9 1029.6 - 0.0
24/03:00am 6.9 2.2 6.0 94 0.4 WNW 20 24 11 13 1029.6 1029.6 0.0
24/02:30am 7.0 2.9 6.1 94 0.4 WNW 17 19 9 10 1029.8 - 0.0
24/02:00am 7.3 3.2 6.2 93 0.5 WNW 17 19 9 10 1029.9 - 0.0
24/01:30am 7.4 3.3 6.3 93 0.5 WNW 17 19 9 10 1029.9 - 0.0
24/01:00am 7.5 3.8 6.4 93 0.5 WNW 15 19 8 10 1029.9 - 0.0
24/12:30am 7.6 3.6 6.5 93 0.5 WNW 17 19 9 10 1029.8 - 0.0
24/12:00am 7.9 4.7 6.7 92 0.6 WNW 13 17 7 9 1029.9 1029.9 0.0
 
Date/Time
EST
Temp
°C
App
Temp
°C
Dew
Point
Rel
Hum
%
Delta-T
°C
Wind Press
QNH
hPa
Press
MSL
hPa
Rain
since 9 am
mm
Dir
 
Spd
km/h
Gust
km/h
Spd
kts
Gust
kts
23/11:30pm 7.9 4.4 7.0 94 0.4 WNW 15 19 8 10 1029.9 - 0.0
23/11:00pm 7.9 5.1 6.8 93 0.5 WNW 11 15 6 8 1029.7 - 0.0
23/10:30pm 8.5 5.0 7.3 92 0.6 W 15 17 8 9 1029.8 - 0.0
23/10:00pm 8.3 4.9 7.5 95 0.4 WNW 15 19 8 10 1029.9 - 0.0
23/09:30pm 8.1 5.4 7.3 95 0.4 WNW 11 13 6 7 1029.9 - 0.0
23/09:00pm 8.5 5.9 7.7 95 0.4 WNW 11 15 6 8 1030.0 1030.0 0.0
23/08:30pm 8.0 5.9 6.8 92 0.6 NNW 7 11 4 6 1029.9 - 0.0
23/08:00pm 8.7 6.4 7.5 92 0.6 W 9 11 5 6 1029.9 - 0.0
23/07:30pm 8.8 6.6 7.7 93 0.5 W 9 9 5 5 1029.8 - 0.0
23/07:00pm 8.6 6.5 8.2 97 0.2 W 9 11 5 6 1029.8 - 0.0
23/06:30pm 8.8 8.4 8.4 97 0.2 CALM 0 11 0 6 1029.6 - 0.0
23/06:00pm 8.9 6.8 8.1 95 0.4 W 9 11 5 6 1029.5 1029.5 0.0

Other Formats:

Comma delimited format used in spreadsheet applications
http://www.bom.gov.au/fwo/IDN60801/IDN60801.94750.axf

JavaScript Object Notation format (JSON) in row-major order
http://www.bom.gov.au/fwo/IDN60801/IDN60801.94750.json